18ème Rallye National Terre de Langres
Championnat de France des Rallyes sur Terre
1 3 CUOQ Jean-Marie/GRANDEMANGE Marielle Citroën C4 WRC FA 8W 8:30,6 84km/h 1
2 5 TRON Noel/OBRECHT Justine Citroën DS3 WRC A 8W 8:33,6 +00:03,0 +00:03,0 1
3 2 DURBEC Thibault/RENUCCI Jacques-Julien Citroën DS3 WRC A 8W 8:39,8 +00:09,2 +00:06,2 1
4 4 MAURIN Julien/URAL Olivier Citroën DS3 WRC A 8W 8:40,1 +00:09,5 +00:00,3 1
5 9 AMOURETTE Marc/MARIE Gwenola Citroën DS3 R5 R 5 9:06,5 +00:35,9 +00:26,4
6 6 BAUD Lionel/SERRE Pascal Ford Focus WRC FA 8W 9:10,1 +00:39,5 +00:03,6 1
7 1 BERFA Jordan/AUGUSTIN Damien HUYNDAI i20 R5 R 5 9:12,5 +00:41,9 +00:02,4 1
8 15 FALCO Jean-Marc/BOUERI Jonathan Mitsubishi Lancer Evo9 R 4 9:19,3 +00:48,7 +00:06,8 1
9 7 FERAUD Cyrille/DUCHEMIN Aymeric Citroën C4 WRC FA 8W 9:21,9 +00:51,3 +00:02,6 1
10 8 MORDACQ Arnaud/RATIER Marie-Noelle Mitsubishi Lancer Evo9 FN 4 9:27,7 +00:57,1 +00:05,8 1
11 67 MARCHAL Eddy/JOLE Damien Citroën Saxo T4 FA 6K 9:31,1 +01:00,5 +00:03,4 1
12 14 CECCHI Philippe/LETOURNEAU Lara Citroën DS3 R5 R 5 10:00,0 +01:29,4 +00:28,9
13 31 COLNEY Thierry/FORTMANN Patrick Citroën DS3 R3 R 3 10:06,1 +01:35,5 +00:06,1 1 2
14 19 CHAYNES Gary/TRIBOUT Christian Mitsubishi Lancer Evo6 FA 8 10:08,2 +01:37,6 +00:02,1 1
15 25 MOREL Jean-Luc/GIDEL Philippe Subaru Impreza WRX FN 4 10:10,4 +01:39,8 +00:02,2
16 42 FRANCESCHI Jean-Baptiste/COURBON Romain Ford Fiesta R2J R 2 10:12,4 +01:41,8 +00:02,0 4
17 16 PELUTTIERO Thibaud/REICHENECKER Josh Mitsubishi Lancer EvoX R 4 10:13,2 +01:42,6 +00:00,8 1
18 17 CLARETY Jérôme/LACOSTE Vincent Mitsubishi Lancer EvoX R 4 10:16,0 +01:45,4 +00:02,8
19 66 CACHOD Sylvain/POURCELOT Aurélien Citroën C2 R2 R 2 10:16,0 +01:45,4
20 62 CHALAL Theo/LE FLOCH Franck Ford Fiesta R2J R 2 10:20,5 +01:49,9 +00:04,5 4
21 23 BENIER Thomas/PRASSE Cédric Subaru Impreza WRX N 4 10:21,5 +01:50,9 +00:01,0 1
22 26 DELOY David/OGIER Cédric Mitsubishi Lancer EvoX N 4 10:22,0 +01:51,4 +00:00,5
23 65 FRANCESCHI Mathieu/BELHACENE Matthieu Citroën C2 R2 R 2 10:24,6 +01:54,0 +00:02,6
24 61 CORNU Alexandre/FASSOLA Thibault Ford Fiesta R2J R 2 10:24,9 +01:54,3 +00:00,3 4
25 57 CARTIER Victor/CRAEN Fabien Ford Fiesta R2J R 2 10:29,9 +01:59,3 +00:05,0 4
26 43 DI FANTE Romain/TEMPIER Romain Ford Fiesta R2J R 2 10:31,0 +02:00,4 +00:01,1 4
27 11 FRAU Richard/GAREL Romain Ford Fiesta R5 R 5 10:32,1 +02:01,5 +00:01,1 1
28 54 MARGAILLAN Hugo/POUJOL Sébastien Ford Fiesta R2J R 2 10:33,0 +02:02,4 +00:00,9 4
29 64 GUIBERT Jean-Christophe/GRACIAL Laurent Ford Fiesta R2 R 2 10:34,8 +02:04,2 +00:01,8
30 18 SALIN Daniel/SALIN Brigitte Subaru Impreza WRX R 4 10:35,1 +02:04,5 +00:00,3
31 63 MOLLARD Alexandre/EYMIN Nicolas Peugeot 208 VTI R 2 10:36,2 +02:05,6 +00:01,1
32 30 ASTIER Loïc/DECLERCK Loïc Citroën DS3 R3 R 3 10:37,7 +02:07,1 +00:01,5 1 2
33 69 QUARROZ Damien/VOLPI Cécile Citroën Saxo T4 FA 6K 10:37,9 +02:07,3 +00:00,2
34 55 PONTAL Julien/BARRAL Florian Ford Fiesta R2J R 2 10:38,0 +02:07,4 +00:00,1 4
35 49 GOUPIL Jocerand/CIANFARANI Anthoni Ford Fiesta R2J R 2 10:43,1 +02:12,5 +00:05,1 4
36 48 JOUINES Jean/CHABBERT Martin Ford Fiesta R2J R 2 10:43,2 +02:12,6 +00:00,1 4
37 78 RAYNAUD Gabriel/JULIEN William Seat Ibiza GTI F2 14 10:43,4 +02:12,8 +00:00,2 1 2
38 51 MOUSTIN Doriann/DESNOYER Alexia Ford Fiesta R2J R 2 10:43,4 +02:12,8 4
39 41 SABATIER Florent/SANTIAGO Thomas Peugeot 106 S16 FA 6 10:45,9 +02:15,3 +00:02,5 1 2
40 85 GERMAIN Alex/POIROT Edgard Peugeot 205 GTI F2 13 10:50,0 +02:19,4 +00:04,1
41 68 PAILLER Julien/HENQUINET Sébastien Citroën Saxo T4 FA 6K 10:52,5 +02:21,9 +00:02,5
42 52 GIUSTI Igor/DINI Gilbert Ford Fiesta R2J R 2 10:56,8 +02:26,2 +00:04,3 4
43 71 COLOMBE Geoffroy/FABREGUE Régis Peugeot 206 XS FA 6K 10:57,4 +02:26,8 +00:00,6
44 84 FOURNIER Nicolas/VATTEAU Kévin Peugeot 206 XS F2 13 10:58,6 +02:28,0 +00:01,2 1 2
45 45 FOURMAUX Adrien/FOURMAUX Maxime Ford Fiesta R2J R 2 10:59,6 +02:29,0 +00:01,0 4
46 90 BERTHOD Loïc/JOSSERAND Alexis Citroën Saxo VTS FN 2 10:59,7 +02:29,1 +00:00,1
47 20 GAIDOZ Hervé/RICHARD François Subaru Impreza WRX FA 8 11:01,0 +02:30,4 +00:01,3 1
48 88 BRISSON Eddy/MASSON Pascal Suzuki Swift Sport FN 2 11:04,6 +02:34,0 +00:03,6
49 74 TATIN Xavier/BAUMET Eddie Peugeot 306 S16 FA 7 11:05,3 +02:34,7 +00:00,7
50 32 JOUINES Rémi/MAHEO Arnaud Peugeot 207 Rc R 3 11:06,2 +02:35,6 +00:00,9 1 2
51 53 GANDELLI David/BIAGETTI Loan Ford Fiesta R2J R 2 11:06,4 +02:35,8 +00:00,2 4
52 12 BESSON Jean-Pascal/ROISSAC Patrice Skoda Fabia R5 R 5 11:08,0 +02:37,4 +00:01,6 1
53 75 LAGIER Fabrice/DUPONT Romuald Peugeot 306 S16 FA 7 11:11,0 +02:40,4 +00:03,0
54 33 BOUCHET Guillaume/BLAMPEY Fabien Peugeot 207 Rc R 3 11:13,8 +02:43,2 +00:02,8
55 44 BOULENC Benjamin/DOS REIS Sébastien Ford Fiesta R2J R 2 11:16,0 +02:45,4 +00:02,2 4
56 47 CHANTRIAUX Audric/PEREZ Laëtitia Ford Fiesta R2J R 2 11:18,5 +02:47,9 +00:02,5 4
57 50 CURIOZ Benjamin/BEERENS Pierre Ford Fiesta R2J R 2 11:20,2 +02:49,6 +00:01,7 4
58 80 REYNAUD Yvan/SCHWARTZ Eric Opel Manta GTE F2 14 11:20,3 +02:49,7 +00:00,1
59 24 MARTI Christian/LAVIALE Jean-Marc Mitsubishi Lancer Evo9 FN 4 11:20,9 +02:50,3 +00:00,6 1
60 60 EMANUEL Maxence/DALMASSO Pauline Ford Fiesta R2J R 2 11:23,7 +02:53,1 +00:02,8 4
61 82 DUCLAUX Julien/AMALBERTI Cédric Peugeot 206 Rc FN 3 11:25,8 +02:55,2 +00:02,1
62 94 VUITTENEZ Victorien/COTE COLISSON Maxime Peugeot 106 XSI FN 1 11:27,5 +02:56,9 +00:01,7
63 87 MOUGIN Jules/ROUMETTE Clemence Peugeot 106 Rallye FA 5 11:30,1 +02:59,5 +00:02,6
64 70 BRENIAUX Sébastien/JACQUES Anthony Peugeot 206 XS FA 6K 11:35,6 +03:05,0 +00:05,5
65 29 DAZY Jean-Pierre/LOIZEAUX Didier Renault Clio R3 R 3 11:44,3 +03:13,7 +00:08,7 1 2
66 28 VIALLE Lilian/GHIRARDELLO Manuel Renault Clio R3 R 3 11:50,9 +03:20,3 +00:06,6 1 2
67 79 CLEMENT Frédéric/COSTES François Peugeot 206 Rc F2 14 11:56,6 +03:26,0 +00:05,7 1 2
68 27 PRIOLO Laurent/PRIOLO Cindy Mitsubishi Lancer Evo9 FN 4 11:57,8 +03:27,2 +00:01,2
69 89 DOLGOPYATOFF Damien/PERRIN Christelle Suzuki Swift Sport FN 2 12:00,9 +03:30,3 +00:03,1
70 56 VIAROUGE David/BENZAL Aurélien Ford Fiesta R2J R 2 12:04,4 +03:33,8 +00:03,5 4
71 81 VIDAL Marc/MONTARON Loïc Peugeot 309 GTI 16S F2 14 12:08,3 +03:37,7 +00:03,9
72 76 VERRY Vanessa/OUVRY Eleonore Peugeot 206 Rc FA 7 12:36,2 +04:05,6 +00:27,9
73 58 VIANO Allison/CHOL Cecilia Ford Fiesta R2J R 2 12:39,0 +04:08,4 +00:02,8 4
74 72 FETY Fabrice/ROLLION Thomas Peugeot 206 XS FA 6K 12:51,1 +04:20,5 +00:12,1
75 22 GLEY Jean-Pierre/JEUDY Nicolas B.M.W. 325 iX FA 8 13:02,2 +04:31,6 +00:11,1
76 86 MAUVAIS Michel/PY Jean-Michel Peugeot 205 Rallye FA 5 13:03,5 +04:32,9 +00:01,3
77 77 STUDER Maude/STUDER Sébastien Peugeot 206 GT FA 7 13:03,7 +04:33,1 +00:00,2
78 95 FAUR Yoann/MASSON Kévin Peugeot 205 Rallye FN 1 13:09,5 +04:38,9 +00:05,8
79 92 FRANCOIS Léa/FRANCOIS Solene Peugeot 106 S16 FN 2 13:38,5 +05:07,9 +00:29,0
80 91 DI PAOLO Alain/MORILLON Frederika Peugeot 106 S16 FN 2 13:53,3 +05:22,7 +00:14,8
81 93 BRAQUET Jean-Baptiste/BRAQUET Elyse Peugeot 106 XSI FN 1 14:09,6 +05:39,0 +00:16,3
82 73 SOUFFEZ Frédéric/PRUVOST Astrid Peugeot 206 Rc FA 7 18:12,5 +09:41,9 +04:02,9 1 2
83 39 MASCLAUX Arnaud/MOULIN Alexandre Renault Clio Ragnotti F2 14 21:23,8 +12:53,2 +03:11,3 1 2
84 40 VITAL Jean-Pierre/YVERNAULT Eric Citroën Saxo VTS F2 13 21:35,8 +13:05,2 +00:12,0 1 2
85 38 JULIA David/AUBERTIN Ludovic Peugeot 206 Rc F2 14 21:58,7 +13:28,1 +00:22,9 1 2
86 37 GUINCHARD Emmanuel/CHATELAIN Mickaël Peugeot 207 Rc R 3 22:47,1 +14:16,5 +00:48,4
87 35 FRANCE Julien/MAZARGUIL Philippe Citroën DS3 R3 R 3 22:56,8 +14:26,2 +00:09,7
88 36 SPART Patrick/CATTIN Charline Peugeot 207 Rc R 3 23:58,1 +15:27,5 +01:01,3
Clt Equipage Voiture Gr/Cl Temps Ecart 1er Ecart préc. Catégories
Commentaires: © PatricK Soft  
(Temps forfaitaires=couleur bleue)
Classés:88

Epreuve: Groupe: Catégorie:

 
Retour
Classement ES1-Aprey - Flagey (12.000 km)